sensor_id;sensor_type;location;lat;lon;timestamp;pressure;altitude;pressure_sealevel;temperature;humidity
21956;BME280;11142;49.930;8.606;2023-03-22T00:01:41;99841.41;;;11.27;100.00
21956;BME280;11142;49.930;8.606;2023-03-22T00:04:11;99843.69;;;11.32;100.00
21956;BME280;11142;49.930;8.606;2023-03-22T00:06:40;99838.78;;;11.40;100.00
21956;BME280;11142;49.930;8.606;2023-03-22T00:09:09;99833.25;;;11.44;100.00
21956;BME280;11142;49.930;8.606;2023-03-22T00:11:38;99827.28;;;11.55;100.00
21956;BME280;11142;49.930;8.606;2023-03-22T00:14:06;99831.13;;;11.62;100.00
21956;BME280;11142;49.930;8.606;2023-03-22T00:16:37;99830.88;;;11.65;100.00
21956;BME280;11142;49.930;8.606;2023-03-22T00:19:06;99826.81;;;11.73;100.00
21956;BME280;11142;49.930;8.606;2023-03-22T00:21:34;99827.59;;;11.87;100.00
21956;BME280;11142;49.930;8.606;2023-03-22T00:24:03;99822.41;;;11.87;100.00
21956;BME280;11142;49.930;8.606;2023-03-22T00:26:33;99825.72;;;11.89;100.00
21956;BME280;11142;49.930;8.606;2023-03-22T00:29:03;99813.28;;;11.81;100.00
21956;BME280;11142;49.930;8.606;2023-03-22T00:31:32;99821.91;;;11.82;100.00
21956;BME280;11142;49.930;8.606;2023-03-22T00:34:01;99818.53;;;11.92;100.00
21956;BME280;11142;49.930;8.606;2023-03-22T00:36:30;99823.53;;;11.95;100.00
21956;BME280;11142;49.930;8.606;2023-03-22T00:39:00;99816.53;;;11.96;100.00
21956;BME280;11142;49.930;8.606;2023-03-22T00:41:29;99816.03;;;11.91;100.00
21956;BME280;11142;49.930;8.606;2023-03-22T00:44:00;99818.91;;;11.99;100.00
21956;BME280;11142;49.930;8.606;2023-03-22T00:46:29;99815.75;;;12.06;100.00
21956;BME280;11142;49.930;8.606;2023-03-22T00:48:58;99804.19;;;12.10;100.00
21956;BME280;11142;49.930;8.606;2023-03-22T00:51:26;99809.63;;;12.18;100.00
21956;BME280;11142;49.930;8.606;2023-03-22T00:53:54;99809.06;;;12.26;100.00
21956;BME280;11142;49.930;8.606;2023-03-22T00:56:23;99815.81;;;12.29;100.00
21956;BME280;11142;49.930;8.606;2023-03-22T00:59:10;99803.72;;;12.27;100.00
21956;BME280;11142;49.930;8.606;2023-03-22T01:01:41;99808.09;;;12.16;100.00
21956;BME280;11142;49.930;8.606;2023-03-22T01:04:09;99816.56;;;12.07;100.00
21956;BME280;11142;49.930;8.606;2023-03-22T01:06:41;99803.19;;;12.00;100.00
21956;BME280;11142;49.930;8.606;2023-03-22T01:09:09;99798.75;;;11.79;100.00
21956;BME280;11142;49.930;8.606;2023-03-22T01:11:40;99789.63;;;11.73;100.00
21956;BME280;11142;49.930;8.606;2023-03-22T01:14:10;99794.47;;;11.78;100.00
21956;BME280;11142;49.930;8.606;2023-03-22T01:16:41;99796.28;;;11.88;100.00
21956;BME280;11142;49.930;8.606;2023-03-22T01:19:09;99792.63;;;11.91;100.00
21956;BME280;11142;49.930;8.606;2023-03-22T01:21:43;99792.31;;;11.71;100.00
21956;BME280;11142;49.930;8.606;2023-03-22T01:24:14;99783.28;;;11.64;100.00
21956;BME280;11142;49.930;8.606;2023-03-22T01:26:43;99783.72;;;11.58;100.00
21956;BME280;11142;49.930;8.606;2023-03-22T01:29:15;99787.59;;;11.77;100.00
21956;BME280;11142;49.930;8.606;2023-03-22T01:31:44;99790.72;;;11.82;100.00
21956;BME280;11142;49.930;8.606;2023-03-22T01:34:12;99785.38;;;11.59;100.00
21956;BME280;11142;49.930;8.606;2023-03-22T01:37:07;99782.28;;;11.54;100.00
21956;BME280;11142;49.930;8.606;2023-03-22T01:39:40;99780.25;;;11.70;100.00
21956;BME280;11142;49.930;8.606;2023-03-22T01:42:12;99774.97;;;11.72;100.00
21956;BME280;11142;49.930;8.606;2023-03-22T01:47:26;99769.41;;;11.77;100.00
21956;BME280;11142;49.930;8.606;2023-03-22T01:49:55;99760.38;;;11.69;100.00
21956;BME280;11142;49.930;8.606;2023-03-22T01:52:26;99753.94;;;11.75;100.00
21956;BME280;11142;49.930;8.606;2023-03-22T01:55:08;99746.13;;;11.75;100.00
21956;BME280;11142;49.930;8.606;2023-03-22T01:57:45;99751.44;;;11.73;100.00
21956;BME280;11142;49.930;8.606;2023-03-22T02:00:20;99751.44;;;11.73;100.00
21956;BME280;11142;49.930;8.606;2023-03-22T02:06:03;99763.81;;;11.94;100.00
21956;BME280;11142;49.930;8.606;2023-03-22T02:08:31;99753.75;;;11.65;100.00
21956;BME280;11142;49.930;8.606;2023-03-22T02:11:06;99744.25;;;11.06;100.00
21956;BME280;11142;49.930;8.606;2023-03-22T02:13:54;99736.84;;;10.63;100.00
21956;BME280;11142;49.930;8.606;2023-03-22T02:16:50;99739.31;;;10.90;100.00
21956;BME280;11142;49.930;8.606;2023-03-22T02:19:35;99742.69;;;11.27;100.00
21956;BME280;11142;49.930;8.606;2023-03-22T02:22:19;99741.94;;;11.38;100.00
21956;BME280;11142;49.930;8.606;2023-03-22T02:24:56;99742.03;;;11.36;100.00
21956;BME280;11142;49.930;8.606;2023-03-22T02:27:34;99738.22;;;11.29;100.00
21956;BME280;11142;49.930;8.606;2023-03-22T02:30:12;99737.06;;;11.33;100.00
21956;BME280;11142;49.930;8.606;2023-03-22T02:32:53;99747.63;;;11.43;100.00
21956;BME280;11142;49.930;8.606;2023-03-22T02:35:35;99743.59;;;11.39;100.00
21956;BME280;11142;49.930;8.606;2023-03-22T02:38:16;99751.72;;;11.34;100.00
21956;BME280;11142;49.930;8.606;2023-03-22T02:40:53;99745.09;;;11.30;100.00
21956;BME280;11142;49.930;8.606;2023-03-22T02:43:28;99743.81;;;11.12;100.00
21956;BME280;11142;49.930;8.606;2023-03-22T02:46:05;99745.25;;;11.16;100.00
21956;BME280;11142;49.930;8.606;2023-03-22T02:48:36;99741.25;;;10.99;100.00
21956;BME280;11142;49.930;8.606;2023-03-22T02:51:08;99735.13;;;10.88;100.00
21956;BME280;11142;49.930;8.606;2023-03-22T02:53:40;99729.97;;;10.75;100.00
21956;BME280;11142;49.930;8.606;2023-03-22T02:56:13;99728.78;;;10.92;100.00
21956;BME280;11142;49.930;8.606;2023-03-22T02:58:43;99731.25;;;11.06;100.00
21956;BME280;11142;49.930;8.606;2023-03-22T03:01:14;99728.53;;;11.07;100.00
21956;BME280;11142;49.930;8.606;2023-03-22T03:03:50;99725.41;;;11.15;100.00
21956;BME280;11142;49.930;8.606;2023-03-22T03:06:23;99720.78;;;11.31;100.00
21956;BME280;11142;49.930;8.606;2023-03-22T03:08:52;99721.69;;;11.30;100.00
21956;BME280;11142;49.930;8.606;2023-03-22T03:11:27;99724.69;;;11.37;100.00
21956;BME280;11142;49.930;8.606;2023-03-22T03:13:58;99725.00;;;11.32;100.00
21956;BME280;11142;49.930;8.606;2023-03-22T03:16:29;99721.16;;;11.38;100.00
21956;BME280;11142;49.930;8.606;2023-03-22T03:19:02;99719.91;;;11.54;100.00
21956;BME280;11142;49.930;8.606;2023-03-22T03:21:35;99728.56;;;11.79;100.00
21956;BME280;11142;49.930;8.606;2023-03-22T03:24:13;99724.34;;;11.89;100.00
21956;BME280;11142;49.930;8.606;2023-03-22T03:26:47;99719.00;;;11.79;100.00
21956;BME280;11142;49.930;8.606;2023-03-22T03:29:19;99719.38;;;11.86;100.00
21956;BME280;11142;49.930;8.606;2023-03-22T03:31:49;99724.09;;;11.92;100.00
21956;BME280;11142;49.930;8.606;2023-03-22T03:34:21;99723.72;;;11.85;100.00
21956;BME280;11142;49.930;8.606;2023-03-22T03:36:52;99725.72;;;11.82;100.00
21956;BME280;11142;49.930;8.606;2023-03-22T03:39:21;99721.69;;;11.78;100.00
21956;BME280;11142;49.930;8.606;2023-03-22T03:41:52;99710.38;;;11.90;100.00
21956;BME280;11142;49.930;8.606;2023-03-22T03:44:21;99712.25;;;11.88;100.00
21956;BME280;11142;49.930;8.606;2023-03-22T03:46:51;99709.53;;;11.78;100.00
21956;BME280;11142;49.930;8.606;2023-03-22T03:49:20;99705.47;;;11.74;100.00
21956;BME280;11142;49.930;8.606;2023-03-22T03:51:50;99705.63;;;11.84;100.00
21956;BME280;11142;49.930;8.606;2023-03-22T03:54:19;99698.91;;;11.57;100.00
21956;BME280;11142;49.930;8.606;2023-03-22T03:56:48;99691.69;;;11.50;100.00
21956;BME280;11142;49.930;8.606;2023-03-22T03:59:18;99698.38;;;11.41;100.00
21956;BME280;11142;49.930;8.606;2023-03-22T04:01:49;99697.03;;;11.59;100.00
21956;BME280;11142;49.930;8.606;2023-03-22T04:04:26;99688.53;;;11.57;100.00
21956;BME280;11142;49.930;8.606;2023-03-22T04:07:02;99691.31;;;11.43;100.00
21956;BME280;11142;49.930;8.606;2023-03-22T04:09:34;99692.06;;;11.56;100.00
21956;BME280;11142;49.930;8.606;2023-03-22T04:12:11;99683.19;;;11.48;100.00
21956;BME280;11142;49.930;8.606;2023-03-22T04:14:42;99682.13;;;11.50;100.00
21956;BME280;11142;49.930;8.606;2023-03-22T04:17:19;99687.19;;;11.52;100.00
21956;BME280;11142;49.930;8.606;2023-03-22T04:19:47;99687.94;;;11.65;100.00
21956;BME280;11142;49.930;8.606;2023-03-22T04:22:15;99685.31;;;11.54;100.00
21956;BME280;11142;49.930;8.606;2023-03-22T04:24:44;99671.13;;;11.47;100.00
21956;BME280;11142;49.930;8.606;2023-03-22T04:27:19;99675.03;;;11.52;100.00
21956;BME280;11142;49.930;8.606;2023-03-22T04:30:00;99667.22;;;11.52;100.00
21956;BME280;11142;49.930;8.606;2023-03-22T04:32:48;99666.06;;;11.56;100.00
21956;BME280;11142;49.930;8.606;2023-03-22T04:35:22;99671.97;;;11.58;100.00
21956;BME280;11142;49.930;8.606;2023-03-22T04:37:52;99672.94;;;11.68;100.00
21956;BME280;11142;49.930;8.606;2023-03-22T04:40:21;99665.00;;;11.59;100.00
21956;BME280;11142;49.930;8.606;2023-03-22T04:43:01;99664.16;;;11.47;100.00
21956;BME280;11142;49.930;8.606;2023-03-22T04:46:08;99666.59;;;11.38;100.00
21956;BME280;11142;49.930;8.606;2023-03-22T04:48:45;99676.03;;;11.39;100.00
21956;BME280;11142;49.930;8.606;2023-03-22T04:51:14;99663.84;;;11.28;100.00
21956;BME280;11142;49.930;8.606;2023-03-22T04:53:57;99669.56;;;11.09;100.00
21956;BME280;11142;49.930;8.606;2023-03-22T04:56:26;99670.53;;;10.96;100.00
21956;BME280;11142;49.930;8.606;2023-03-22T04:58:54;99663.19;;;10.90;100.00
21956;BME280;11142;49.930;8.606;2023-03-22T05:01:24;99670.38;;;10.86;100.00
21956;BME280;11142;49.930;8.606;2023-03-22T05:04:02;99658.13;;;10.76;100.00
21956;BME280;11142;49.930;8.606;2023-03-22T05:06:30;99659.72;;;10.65;100.00
21956;BME280;11142;49.930;8.606;2023-03-22T05:09:09;99662.03;;;10.57;100.00
21956;BME280;11142;49.930;8.606;2023-03-22T05:11:38;99665.28;;;10.48;100.00
21956;BME280;11142;49.930;8.606;2023-03-22T05:14:27;99662.38;;;10.40;100.00
21956;BME280;11142;49.930;8.606;2023-03-22T05:16:56;99670.91;;;10.42;100.00
21956;BME280;11142;49.930;8.606;2023-03-22T05:19:24;99660.63;;;10.41;100.00
21956;BME280;11142;49.930;8.606;2023-03-22T05:21:56;99665.50;;;10.45;100.00
21956;BME280;11142;49.930;8.606;2023-03-22T05:24:40;99665.59;;;10.31;100.00
21956;BME280;11142;49.930;8.606;2023-03-22T05:27:13;99661.97;;;10.21;100.00
21956;BME280;11142;49.930;8.606;2023-03-22T05:29:42;99663.16;;;10.17;100.00
21956;BME280;11142;49.930;8.606;2023-03-22T05:32:27;99666.25;;;10.22;100.00
21956;BME280;11142;49.930;8.606;2023-03-22T05:34:56;99654.13;;;10.23;100.00
21956;BME280;11142;49.930;8.606;2023-03-22T05:37:36;99668.31;;;10.42;100.00
21956;BME280;11142;49.930;8.606;2023-03-22T05:40:05;99673.78;;;10.50;100.00
21956;BME280;11142;49.930;8.606;2023-03-22T05:42:40;99665.66;;;10.68;100.00
21956;BME280;11142;49.930;8.606;2023-03-22T05:45:18;99676.69;;;10.82;100.00
21956;BME280;11142;49.930;8.606;2023-03-22T05:47:59;99681.00;;;10.94;100.00
21956;BME280;11142;49.930;8.606;2023-03-22T05:50:28;99683.78;;;11.04;100.00
21956;BME280;11142;49.930;8.606;2023-03-22T05:52:57;99683.81;;;10.91;100.00
21956;BME280;11142;49.930;8.606;2023-03-22T05:55:31;99689.59;;;10.84;100.00
21956;BME280;11142;49.930;8.606;2023-03-22T05:58:02;99691.06;;;10.62;100.00
21956;BME280;11142;49.930;8.606;2023-03-22T06:00:35;99689.03;;;10.55;100.00
21956;BME280;11142;49.930;8.606;2023-03-22T06:03:20;99677.44;;;10.35;100.00
21956;BME280;11142;49.930;8.606;2023-03-22T06:06:01;99684.09;;;10.27;100.00
21956;BME280;11142;49.930;8.606;2023-03-22T06:08:39;99694.97;;;10.32;100.00
21956;BME280;11142;49.930;8.606;2023-03-22T06:11:07;99685.84;;;10.26;100.00
21956;BME280;11142;49.930;8.606;2023-03-22T06:13:36;99681.50;;;10.27;100.00
21956;BME280;11142;49.930;8.606;2023-03-22T06:16:05;99686.38;;;10.19;100.00
21956;BME280;11142;49.930;8.606;2023-03-22T06:18:35;99676.31;;;10.27;100.00
21956;BME280;11142;49.930;8.606;2023-03-22T06:21:08;99665.59;;;10.31;100.00
21956;BME280;11142;49.930;8.606;2023-03-22T06:23:36;99667.97;;;10.47;100.00
21956;BME280;11142;49.930;8.606;2023-03-22T06:26:06;99671.41;;;10.47;100.00
21956;BME280;11142;49.930;8.606;2023-03-22T06:28:38;99677.31;;;10.86;100.00
21956;BME280;11142;49.930;8.606;2023-03-22T06:31:11;99695.00;;;11.04;100.00
21956;BME280;11142;49.930;8.606;2023-03-22T06:33:47;99692.06;;;11.33;100.00
21956;BME280;11142;49.930;8.606;2023-03-22T06:36:38;99699.88;;;11.67;100.00
21956;BME280;11142;49.930;8.606;2023-03-22T06:39:23;99713.81;;;11.90;100.00
21956;BME280;11142;49.930;8.606;2023-03-22T06:41:51;99710.13;;;11.82;100.00
21956;BME280;11142;49.930;8.606;2023-03-22T06:44:20;99711.19;;;11.90;100.00
21956;BME280;11142;49.930;8.606;2023-03-22T06:46:48;99716.09;;;12.17;100.00
21956;BME280;11142;49.930;8.606;2023-03-22T06:49:42;99719.22;;;12.55;100.00
21956;BME280;11142;49.930;8.606;2023-03-22T06:52:16;99727.19;;;13.19;100.00
21956;BME280;11142;49.930;8.606;2023-03-22T06:54:44;99733.94;;;13.85;100.00
21956;BME280;11142;49.930;8.606;2023-03-22T06:57:12;99728.91;;;13.93;100.00
21956;BME280;11142;49.930;8.606;2023-03-22T06:59:41;99738.59;;;13.50;100.00
21956;BME280;11142;49.930;8.606;2023-03-22T07:02:09;99731.78;;;13.26;100.00
21956;BME280;11142;49.930;8.606;2023-03-22T07:04:46;99738.56;;;13.18;100.00
21956;BME280;11142;49.930;8.606;2023-03-22T07:07:14;99728.75;;;13.10;100.00
21956;BME280;11142;49.930;8.606;2023-03-22T07:09:43;99736.19;;;13.04;100.00
21956;BME280;11142;49.930;8.606;2023-03-22T07:12:11;99733.03;;;12.89;100.00
21956;BME280;11142;49.930;8.606;2023-03-22T07:14:39;99733.75;;;12.80;100.00
21956;BME280;11142;49.930;8.606;2023-03-22T07:17:26;99733.28;;;12.64;100.00
21956;BME280;11142;49.930;8.606;2023-03-22T07:19:55;99729.59;;;12.44;100.00
21956;BME280;11142;49.930;8.606;2023-03-22T07:22:23;99723.69;;;12.31;100.00
21956;BME280;11142;49.930;8.606;2023-03-22T07:24:53;99736.47;;;12.56;100.00
21956;BME280;11142;49.930;8.606;2023-03-22T07:27:28;99727.91;;;13.10;100.00
21956;BME280;11142;49.930;8.606;2023-03-22T07:29:57;99732.56;;;13.70;100.00
21956;BME280;11142;49.930;8.606;2023-03-22T07:32:26;99735.50;;;14.18;100.00
21956;BME280;11142;49.930;8.606;2023-03-22T07:35:09;99738.41;;;14.75;100.00
21956;BME280;11142;49.930;8.606;2023-03-22T07:37:38;99731.50;;;15.05;100.00
21956;BME280;11142;49.930;8.606;2023-03-22T07:40:16;99734.81;;;15.16;100.00
21956;BME280;11142;49.930;8.606;2023-03-22T07:42:48;99729.19;;;15.21;100.00
21956;BME280;11142;49.930;8.606;2023-03-22T07:45:32;99725.47;;;15.14;100.00
21956;BME280;11142;49.930;8.606;2023-03-22T07:48:19;99722.69;;;14.96;100.00
21956;BME280;11142;49.930;8.606;2023-03-22T07:50:57;99726.50;;;14.82;100.00
21956;BME280;11142;49.930;8.606;2023-03-22T07:53:27;99721.06;;;15.14;100.00
21956;BME280;11142;49.930;8.606;2023-03-22T07:55:56;99722.25;;;15.69;100.00
21956;BME280;11142;49.930;8.606;2023-03-22T07:58:24;99722.22;;;15.88;100.00
21956;BME280;11142;49.930;8.606;2023-03-22T08:01:02;99730.16;;;16.16;100.00
21956;BME280;11142;49.930;8.606;2023-03-22T08:03:52;99702.53;;;15.65;100.00
21956;BME280;11142;49.930;8.606;2023-03-22T08:06:32;99719.31;;;16.01;100.00
21956;BME280;11142;49.930;8.606;2023-03-22T08:09:02;99722.00;;;16.65;100.00
21956;BME280;11142;49.930;8.606;2023-03-22T08:11:30;99714.16;;;16.65;99.20
21956;BME280;11142;49.930;8.606;2023-03-22T08:13:59;99730.03;;;16.54;100.00
21956;BME280;11142;49.930;8.606;2023-03-22T08:16:29;99713.88;;;16.22;100.00
21956;BME280;11142;49.930;8.606;2023-03-22T08:19:00;99715.53;;;16.69;100.00
21956;BME280;11142;49.930;8.606;2023-03-22T08:21:34;99714.84;;;16.94;97.11
21956;BME280;11142;49.930;8.606;2023-03-22T08:24:04;99714.38;;;16.35;97.63
21956;BME280;11142;49.930;8.606;2023-03-22T08:27:08;99721.97;;;16.38;99.05
21956;BME280;11142;49.930;8.606;2023-03-22T08:29:48;99733.09;;;16.40;100.00
21956;BME280;11142;49.930;8.606;2023-03-22T08:32:18;99731.81;;;16.63;100.00
21956;BME280;11142;49.930;8.606;2023-03-22T08:34:47;99724.19;;;16.97;99.02
21956;BME280;11142;49.930;8.606;2023-03-22T08:37:19;99724.63;;;17.20;92.05
21956;BME280;11142;49.930;8.606;2023-03-22T08:39:47;99721.09;;;16.84;93.27
21956;BME280;11142;49.930;8.606;2023-03-22T08:42:35;99709.91;;;16.64;98.69
21956;BME280;11142;49.930;8.606;2023-03-22T08:45:04;99723.66;;;17.21;94.54
21956;BME280;11142;49.930;8.606;2023-03-22T08:47:35;99708.84;;;17.47;89.14
21956;BME280;11142;49.930;8.606;2023-03-22T08:50:07;99710.72;;;17.37;89.03
21956;BME280;11142;49.930;8.606;2023-03-22T08:52:59;99698.13;;;17.40;88.23
21956;BME280;11142;49.930;8.606;2023-03-22T08:55:33;99698.00;;;17.85;83.60
21956;BME280;11142;49.930;8.606;2023-03-22T08:58:07;99699.44;;;17.97;85.16
21956;BME280;11142;49.930;8.606;2023-03-22T09:01:03;99692.34;;;18.49;79.60
21956;BME280;11142;49.930;8.606;2023-03-22T09:03:39;99691.25;;;18.00;81.03
21956;BME280;11142;49.930;8.606;2023-03-22T09:06:11;99691.09;;;17.59;85.02
21956;BME280;11142;49.930;8.606;2023-03-22T09:08:45;99682.91;;;17.62;85.00
21956;BME280;11142;49.930;8.606;2023-03-22T09:11:20;99681.03;;;17.72;82.46
21956;BME280;11142;49.930;8.606;2023-03-22T09:13:48;99678.78;;;17.59;82.47
21956;BME280;11142;49.930;8.606;2023-03-22T09:16:17;99680.06;;;17.98;83.37
21956;BME280;11142;49.930;8.606;2023-03-22T09:18:46;99686.34;;;18.39;80.27
21956;BME280;11142;49.930;8.606;2023-03-22T09:21:16;99675.09;;;18.21;76.02
21956;BME280;11142;49.930;8.606;2023-03-22T09:23:51;99668.53;;;17.91;79.19
21956;BME280;11142;49.930;8.606;2023-03-22T09:26:25;99681.63;;;18.43;77.04
21956;BME280;11142;49.930;8.606;2023-03-22T09:28:53;99684.56;;;18.40;75.21
21956;BME280;11142;49.930;8.606;2023-03-22T09:31:25;99678.13;;;18.68;75.48
21956;BME280;11142;49.930;8.606;2023-03-22T09:34:08;99675.03;;;18.73;75.32
21956;BME280;11142;49.930;8.606;2023-03-22T09:36:37;99677.81;;;18.63;74.42
21956;BME280;11142;49.930;8.606;2023-03-22T09:39:07;99665.75;;;18.27;76.27
21956;BME280;11142;49.930;8.606;2023-03-22T09:41:37;99672.38;;;18.31;77.21
21956;BME280;11142;49.930;8.606;2023-03-22T09:44:07;99667.34;;;18.12;74.54
21956;BME280;11142;49.930;8.606;2023-03-22T09:46:37;99656.63;;;18.05;76.56
21956;BME280;11142;49.930;8.606;2023-03-22T09:49:08;99650.16;;;17.91;75.91
21956;BME280;11142;49.930;8.606;2023-03-22T09:51:39;99657.00;;;18.10;77.54
21956;BME280;11142;49.930;8.606;2023-03-22T09:54:18;99655.22;;;18.19;75.91
21956;BME280;11142;49.930;8.606;2023-03-22T09:56:49;99654.16;;;17.78;74.49
21956;BME280;11142;49.930;8.606;2023-03-22T09:59:22;99646.66;;;17.47;74.39
21956;BME280;11142;49.930;8.606;2023-03-22T10:01:55;99636.50;;;17.62;72.44
21956;BME280;11142;49.930;8.606;2023-03-22T10:04:28;99623.88;;;17.48;72.66
21956;BME280;11142;49.930;8.606;2023-03-22T10:07:03;99634.41;;;17.30;73.99
21956;BME280;11142;49.930;8.606;2023-03-22T10:09:36;99630.69;;;18.02;72.47
21956;BME280;11142;49.930;8.606;2023-03-22T10:12:10;99631.97;;;18.58;70.21
21956;BME280;11142;49.930;8.606;2023-03-22T10:14:45;99632.84;;;18.82;66.75
21956;BME280;11142;49.930;8.606;2023-03-22T10:17:17;99635.06;;;19.51;62.88
21956;BME280;11142;49.930;8.606;2023-03-22T10:19:48;99637.16;;;19.16;64.18
21956;BME280;11142;49.930;8.606;2023-03-22T10:22:17;99634.69;;;19.06;63.25
21956;BME280;11142;49.930;8.606;2023-03-22T10:24:52;99624.09;;;18.32;66.53
21956;BME280;11142;49.930;8.606;2023-03-22T10:27:22;99637.38;;;17.96;69.41
21956;BME280;11142;49.930;8.606;2023-03-22T10:29:50;99633.16;;;17.78;68.88
21956;BME280;11142;49.930;8.606;2023-03-22T10:32:21;99628.06;;;18.36;66.62
21956;BME280;11142;49.930;8.606;2023-03-22T10:34:53;99634.59;;;19.40;60.70
21956;BME280;11142;49.930;8.606;2023-03-22T10:37:22;99628.66;;;20.72;54.72
21956;BME280;11142;49.930;8.606;2023-03-22T10:39:53;99634.81;;;21.41;51.76
21956;BME280;11142;49.930;8.606;2023-03-22T10:42:23;99631.88;;;22.90;47.80
21956;BME280;11142;49.930;8.606;2023-03-22T10:44:52;99639.41;;;23.50;44.31
21956;BME280;11142;49.930;8.606;2023-03-22T10:47:23;99644.84;;;24.60;43.13
21956;BME280;11142;49.930;8.606;2023-03-22T10:49:55;99623.09;;;23.04;43.04
21956;BME280;11142;49.930;8.606;2023-03-22T10:52:30;99628.69;;;22.95;44.37
21956;BME280;11142;49.930;8.606;2023-03-22T10:55:05;99636.13;;;23.97;41.11
21956;BME280;11142;49.930;8.606;2023-03-22T10:57:36;99632.41;;;23.21;42.71
21956;BME280;11142;49.930;8.606;2023-03-22T11:00:06;99620.34;;;23.61;41.00
21956;BME280;11142;49.930;8.606;2023-03-22T11:02:43;99619.44;;;23.48;42.89
21956;BME280;11142;49.930;8.606;2023-03-22T11:05:18;99620.66;;;21.94;45.66
21956;BME280;11142;49.930;8.606;2023-03-22T11:07:48;99625.25;;;22.80;45.76
21956;BME280;11142;49.930;8.606;2023-03-22T11:10:21;99612.50;;;23.04;42.62
21956;BME280;11142;49.930;8.606;2023-03-22T11:12:50;99619.03;;;23.29;42.81
21956;BME280;11142;49.930;8.606;2023-03-22T11:15:23;99600.78;;;22.92;42.43
21956;BME280;11142;49.930;8.606;2023-03-22T11:17:52;99608.50;;;22.94;42.12
21956;BME280;11142;49.930;8.606;2023-03-22T11:20:24;99613.41;;;24.57;41.46
21956;BME280;11142;49.930;8.606;2023-03-22T11:22:55;99606.53;;;26.33;35.96
21956;BME280;11142;49.930;8.606;2023-03-22T11:25:29;99610.13;;;26.52;35.63
21956;BME280;11142;49.930;8.606;2023-03-22T11:28:05;99608.06;;;25.83;35.93
21956;BME280;11142;49.930;8.606;2023-03-22T11:30:35;99598.84;;;25.79;35.41
21956;BME280;11142;49.930;8.606;2023-03-22T11:33:12;99600.09;;;25.50;35.77
21956;BME280;11142;49.930;8.606;2023-03-22T11:35:43;99601.31;;;25.41;36.22
21956;BME280;11142;49.930;8.606;2023-03-22T11:38:21;99584.56;;;24.41;37.67
21956;BME280;11142;49.930;8.606;2023-03-22T11:40:52;99588.50;;;22.19;41.87
21956;BME280;11142;49.930;8.606;2023-03-22T11:43:22;99587.00;;;21.73;43.45
21956;BME280;11142;49.930;8.606;2023-03-22T11:45:52;99588.53;;;21.07;44.45
21956;BME280;11142;49.930;8.606;2023-03-22T11:48:22;99583.47;;;22.24;43.60
21956;BME280;11142;49.930;8.606;2023-03-22T11:50:51;99572.06;;;22.39;42.22
21956;BME280;11142;49.930;8.606;2023-03-22T11:53:20;99557.53;;;20.64;44.45
21956;BME280;11142;49.930;8.606;2023-03-22T11:55:53;99556.72;;;20.86;44.65
21956;BME280;11142;49.930;8.606;2023-03-22T11:58:26;99567.59;;;21.81;43.00
21956;BME280;11142;49.930;8.606;2023-03-22T12:00:55;99568.91;;;24.11;38.67
21956;BME280;11142;49.930;8.606;2023-03-22T12:03:26;99569.41;;;24.95;36.05
21956;BME280;11142;49.930;8.606;2023-03-22T12:05:55;99559.16;;;24.79;35.14
21956;BME280;11142;49.930;8.606;2023-03-22T12:08:26;99566.38;;;25.57;34.22
21956;BME280;11142;49.930;8.606;2023-03-22T12:10:59;99545.97;;;26.28;33.54
21956;BME280;11142;49.930;8.606;2023-03-22T12:13:31;99545.09;;;26.41;33.28
21956;BME280;11142;49.930;8.606;2023-03-22T12:16:00;99549.34;;;26.49;33.62
21956;BME280;11142;49.930;8.606;2023-03-22T12:18:29;99550.28;;;24.46;35.74
21956;BME280;11142;49.930;8.606;2023-03-22T12:20:59;99549.63;;;25.30;34.55
21956;BME280;11142;49.930;8.606;2023-03-22T12:23:28;99545.25;;;24.64;35.39
21956;BME280;11142;49.930;8.606;2023-03-22T12:25:59;99541.75;;;23.68;37.36
21956;BME280;11142;49.930;8.606;2023-03-22T12:28:29;99543.94;;;24.40;37.71
21956;BME280;11142;49.930;8.606;2023-03-22T12:31:00;99540.56;;;24.79;35.57
21956;BME280;11142;49.930;8.606;2023-03-22T12:33:30;99528.16;;;25.38;35.12
21956;BME280;11142;49.930;8.606;2023-03-22T12:36:00;99539.59;;;25.46;33.45
21956;BME280;11142;49.930;8.606;2023-03-22T12:38:30;99535.69;;;25.09;34.02
21956;BME280;11142;49.930;8.606;2023-03-22T12:41:03;99522.22;;;25.50;33.58
21956;BME280;11142;49.930;8.606;2023-03-22T12:43:37;99523.72;;;26.54;32.34
21956;BME280;11142;49.930;8.606;2023-03-22T12:46:06;99528.00;;;26.04;34.05
21956;BME280;11142;49.930;8.606;2023-03-22T12:48:38;99519.19;;;26.10;32.70
21956;BME280;11142;49.930;8.606;2023-03-22T12:51:11;99509.97;;;25.03;34.33
21956;BME280;11142;49.930;8.606;2023-03-22T12:53:41;99504.78;;;24.01;35.86
21956;BME280;11142;49.930;8.606;2023-03-22T12:56:12;99514.47;;;23.40;35.88
21956;BME280;11142;49.930;8.606;2023-03-22T12:58:44;99501.59;;;24.99;33.56
21956;BME280;11142;49.930;8.606;2023-03-22T13:01:21;99509.88;;;23.96;34.20
21956;BME280;11142;49.930;8.606;2023-03-22T13:03:50;99496.31;;;24.86;33.47
21956;BME280;11142;49.930;8.606;2023-03-22T13:06:28;99512.81;;;25.27;32.75
21956;BME280;11142;49.930;8.606;2023-03-22T13:09:00;99499.41;;;26.00;32.54
21956;BME280;11142;49.930;8.606;2023-03-22T13:11:30;99504.09;;;24.27;33.49
21956;BME280;11142;49.930;8.606;2023-03-22T13:13:58;99497.41;;;24.38;34.21
21956;BME280;11142;49.930;8.606;2023-03-22T13:24:59;99490.38;;;27.08;31.87
21956;BME280;11142;49.930;8.606;2023-03-22T13:27:39;99469.09;;;24.77;33.36
21956;BME280;11142;49.930;8.606;2023-03-22T13:30:14;99478.22;;;25.73;32.88
21956;BME280;11142;49.930;8.606;2023-03-22T13:32:44;99477.03;;;25.50;32.55
21956;BME280;11142;49.930;8.606;2023-03-22T13:35:21;99477.50;;;25.01;33.42
21956;BME280;11142;49.930;8.606;2023-03-22T13:37:50;99473.78;;;25.34;32.84
21956;BME280;11142;49.930;8.606;2023-03-22T13:40:22;99476.56;;;26.61;31.80